Time;durP1;ratioP1;P1;durP2;ratioP2;P2;SDS_P1;SDS_P2;PMS_P1;PMS_P2;Temp;Humidity;BMP_temperature;BMP_pressure;BME280_temperature;BME280_humidity;BME280_pressure;Samples;Min_cycle;Max_cycle;Signal;HPM_P1;HPM_P2
2024/03/06 00:02:20;;;;;;;63.90;25.70;;;;;;;11.18;43.17;100362.87;108070;1254;70567;-67
2024/03/06 00:04:47;;;;;;;53.20;24.60;;;;;;;11.07;43.50;100368.52;107925;1260;72793;-66
2024/03/06 00:07:13;;;;;;;55.60;23.90;;;;;;;11.10;43.45;100368.42;108068;1254;61149;-67
2024/03/06 00:09:40;;;;;;;50.40;23.90;;;;;;;11.08;43.53;100372.72;108036;1254;60332;-67
2024/03/06 00:12:09;;;;;;;53.00;25.40;;;;;;;11.07;43.64;100374.30;108029;1254;73041;-67
2024/03/06 00:14:36;;;;;;;114.00;48.80;;;;;;;11.03;43.75;100375.34;107991;1254;70618;-68
2024/03/06 00:17:04;;;;;;;67.80;27.30;;;;;;;11.01;43.93;100372.62;108000;1254;71405;-67
2024/03/06 00:19:31;;;;;;;59.20;26.60;;;;;;;11.02;43.94;100371.35;108079;1254;62348;-68
2024/03/06 00:21:58;;;;;;;62.50;26.40;;;;;;;11.04;44.06;100372.48;108077;1254;59988;-66
2024/03/06 00:24:25;;;;;;;51.20;24.10;;;;;;;11.15;43.96;100371.06;108000;1254;59131;-67
2024/03/06 00:26:52;;;;;;;50.80;25.70;;;;;;;11.03;44.12;100372.89;108000;1254;70301;-66
2024/03/06 00:29:18;;;;;;;56.90;25.40;;;;;;;11.02;44.20;100373.09;108037;1254;73387;-67
2024/03/06 00:31:46;;;;;;;61.40;28.60;;;;;;;10.95;44.35;100372.98;108152;1253;61118;-67
2024/03/06 00:34:16;;;;;;;57.70;28.50;;;;;;;10.98;44.34;100367.63;108104;1254;59634;-66
2024/03/06 00:36:43;;;;;;;61.70;28.30;;;;;;;10.86;44.52;100374.70;108074;1254;73050;-67
2024/03/06 00:39:10;;;;;;;65.20;30.40;;;;;;;10.82;44.75;100373.27;108062;1254;71057;-67
2024/03/06 00:41:37;;;;;;;66.60;30.30;;;;;;;10.86;44.74;100374.35;108070;1254;71252;-67
2024/03/06 00:44:05;;;;;;;85.70;34.80;;;;;;;10.98;44.51;100372.52;108042;1257;61559;-68
2024/03/06 00:46:32;;;;;;;75.90;31.20;;;;;;;10.92;44.71;100375.03;108096;1254;59371;-69
2024/03/06 00:48:59;;;;;;;74.70;32.70;;;;;;;10.83;44.90;100376.56;108088;1254;71084;-67
2024/03/06 00:51:25;;;;;;;79.00;32.70;;;;;;;10.85;44.90;100375.81;108036;1253;68855;-67
2024/03/06 00:54:10;;;;;;;68.20;31.80;;;;;;;10.90;44.79;100376.33;108030;1257;73249;-65
2024/03/06 00:56:38;;;;;;;90.40;45.50;;;;;;;10.75;45.15;100378.42;108039;1257;61122;-67
2024/03/06 00:59:05;;;;;;;137.60;58.60;;;;;;;10.79;45.14;100381.45;108135;1254;59654;-67
2024/03/06 01:01:32;;;;;;;102.50;39.00;;;;;;;10.77;45.15;100380.10;107959;1253;72752;-68
2024/03/06 01:03:59;;;;;;;77.00;32.50;;;;;;;10.82;45.07;100382.91;108072;1254;70972;-66
2024/03/06 01:06:26;;;;;;;68.90;32.90;;;;;;;10.86;45.03;100379.79;107993;1254;72720;-67
2024/03/06 01:08:53;;;;;;;66.60;30.80;;;;;;;11.00;44.72;100383.34;108064;1254;61162;-68
2024/03/06 01:11:19;;;;;;;67.70;33.80;;;;;;;10.94;44.79;100383.04;108035;1254;60217;-67
2024/03/06 01:13:46;;;;;;;73.30;33.70;;;;;;;10.91;44.86;100386.81;108006;1254;73839;-67
2024/03/06 01:16:13;;;;;;;77.30;35.60;;;;;;;10.71;45.36;100388.02;107996;1254;70276;-65
2024/03/06 01:18:40;;;;;;;72.10;33.20;;;;;;;10.70;45.31;100389.30;108048;1254;73320;-68
2024/03/06 01:21:06;;;;;;;82.30;35.90;;;;;;;10.82;45.13;100391.36;108077;1254;60468;-66
2024/03/06 01:23:33;;;;;;;96.30;40.90;;;;;;;10.73;45.31;100394.48;108080;1254;60081;-67
2024/03/06 01:26:00;;;;;;;94.40;41.50;;;;;;;10.76;45.20;100392.25;108021;1254;74389;-65
2024/03/06 01:28:27;;;;;;;83.40;36.10;;;;;;;10.70;45.32;100394.72;108029;1254;70752;-66
2024/03/06 01:30:54;;;;;;;88.70;36.60;;;;;;;10.71;45.33;100390.84;108017;1254;72780;-67
2024/03/06 01:33:21;;;;;;;84.60;37.20;;;;;;;10.67;45.45;100395.18;107981;1254;61046;-65
2024/03/06 01:35:48;;;;;;;86.00;37.40;;;;;;;10.64;45.49;100393.52;107986;1255;60446;-67
2024/03/06 01:38:15;;;;;;;90.70;38.60;;;;;;;10.61;45.52;100390.29;107948;1259;74246;-66
2024/03/06 01:40:45;;;;;;;94.00;43.00;;;;;;;10.58;45.65;100391.63;107963;1258;70096;-67
2024/03/06 01:43:23;;;;;;;156.50;66.40;;;;;;;10.60;45.53;100392.25;107948;1256;72581;-69
2024/03/06 01:45:55;;;;;;;100.20;38.20;;;;;;;10.61;45.45;100395.38;107859;1254;60415;-67
2024/03/06 01:48:25;;;;;;;92.50;37.10;;;;;;;10.66;45.38;100391.15;108003;1254;60444;-67
2024/03/06 01:50:53;;;;;;;79.40;33.70;;;;;;;10.73;45.21;100392.55;108009;1255;72625;-67
2024/03/06 01:53:20;;;;;;;70.50;32.90;;;;;;;10.69;45.27;100394.05;107986;1258;69337;-67
2024/03/06 01:55:47;;;;;;;67.00;33.10;;;;;;;10.67;45.30;100393.27;107811;1254;72084;-66
2024/03/06 01:58:13;;;;;;;68.30;32.00;;;;;;;10.70;45.22;100402.80;107969;1254;60316;-67
2024/03/06 02:00:40;;;;;;;75.50;31.60;;;;;;;10.75;45.05;100402.31;107991;1254;60225;-68
2024/03/06 02:03:07;;;;;;;67.60;33.10;;;;;;;10.80;44.89;100401.95;107986;1255;72540;-66
2024/03/06 02:05:33;;;;;;;72.90;33.60;;;;;;;10.83;44.87;100404.33;107828;1255;70312;-67
2024/03/06 02:08:00;;;;;;;73.10;31.90;;;;;;;10.83;44.87;100406.43;107994;1254;73107;-67
2024/03/06 02:10:27;;;;;;;65.20;32.10;;;;;;;10.92;44.54;100410.34;108010;1259;60345;-65
2024/03/06 02:12:54;;;;;;;65.60;32.20;;;;;;;10.92;44.54;100415.61;108039;1257;60585;-66
2024/03/06 02:15:20;;;;;;;65.90;32.20;;;;;;;10.80;44.72;100418.27;108006;1256;73647;-67
2024/03/06 02:17:47;;;;;;;57.90;29.70;;;;;;;10.91;44.60;100420.38;107988;1257;70382;-67
2024/03/06 02:20:15;;;;;;;58.90;29.20;;;;;;;10.86;44.63;100426.52;107923;1256;71256;-67
2024/03/06 02:22:42;;;;;;;74.70;34.60;;;;;;;10.78;44.74;100424.69;108031;1255;60959;-68
2024/03/06 02:25:09;;;;;;;59.40;29.90;;;;;;;10.76;44.72;100424.93;107962;1256;60262;-67
2024/03/06 02:27:36;;;;;;;67.60;32.20;;;;;;;10.74;44.74;100427.98;107989;1256;73747;-67
2024/03/06 02:30:04;;;;;;;70.50;32.20;;;;;;;10.70;44.89;100429.15;108020;1257;70203;-67
2024/03/06 02:32:30;;;;;;;61.50;30.20;;;;;;;10.56;45.27;100432.59;108092;1255;71295;-67
2024/03/06 02:34:57;;;;;;;66.50;31.60;;;;;;;10.59;45.27;100432.48;108026;1254;60998;-66
2024/03/06 02:37:24;;;;;;;83.70;35.10;;;;;;;10.61;45.32;100432.59;108034;1254;60136;-66
2024/03/06 02:39:51;;;;;;;74.10;33.60;;;;;;;10.48;45.67;100431.63;107944;1254;74392;-67
2024/03/06 02:42:17;;;;;;;66.80;31.10;;;;;;;10.45;45.77;100435.73;108072;1254;70281;-67
2024/03/06 02:44:44;;;;;;;71.90;33.00;;;;;;;10.39;45.88;100436.30;108063;1254;60338;-67
2024/03/06 02:47:11;;;;;;;69.90;33.60;;;;;;;10.39;45.93;100441.90;108072;1254;61094;-63
2024/03/06 02:49:38;;;;;;;65.50;31.60;;;;;;;10.38;45.88;100441.23;108081;1254;60417;-65
2024/03/06 02:52:05;;;;;;;67.00;31.20;;;;;;;10.32;45.92;100439.83;108004;1254;72694;-64
2024/03/06 02:54:31;;;;;;;64.30;32.20;;;;;;;10.37;45.88;100440.05;108100;1254;70719;-65
2024/03/06 02:56:58;;;;;;;66.60;32.40;;;;;;;10.41;45.86;100439.73;108068;1254;71269;-65
2024/03/06 02:59:25;;;;;;;68.30;32.40;;;;;;;10.31;45.90;100439.52;108085;1253;61164;-69
2024/03/06 03:01:51;;;;;;;68.40;32.70;;;;;;;10.21;46.02;100443.29;108052;1253;60367;-67
2024/03/06 03:04:18;;;;;;;63.20;32.50;;;;;;;10.26;45.99;100444.05;108059;1257;73893;-66
2024/03/06 03:06:45;;;;;;;77.20;36.90;;;;;;;10.27;45.99;100442.45;108051;1254;71168;-67
2024/03/06 03:09:11;;;;;;;67.80;33.40;;;;;;;10.26;45.93;100445.09;108012;1253;59214;-66
2024/03/06 03:11:38;;;;;;;69.80;33.50;;;;;;;10.23;45.93;100443.05;108050;1253;60984;-67
2024/03/06 03:14:05;;;;;;;74.90;34.30;;;;;;;10.07;46.20;100447.60;108175;1253;61202;-65
2024/03/06 03:16:32;;;;;;;75.70;35.40;;;;;;;9.96;46.68;100445.98;108261;1254;72231;-65
2024/03/06 03:18:59;;;;;;;71.70;36.90;;;;;;;9.94;46.51;100443.58;108078;1254;70154;-71
2024/03/06 03:21:25;;;;;;;68.60;34.10;;;;;;;9.93;46.69;100445.23;108076;1254;71123;-66
2024/03/06 03:23:52;;;;;;;81.70;35.80;;;;;;;9.92;46.69;100443.46;108133;1253;61052;-66
2024/03/06 03:26:19;;;;;;;81.50;35.80;;;;;;;9.89;46.66;100440.57;108063;1253;60390;-66
2024/03/06 03:28:46;;;;;;;68.70;34.40;;;;;;;9.79;46.85;100446.48;108080;1254;73826;-67
2024/03/06 03:31:13;;;;;;;66.50;32.60;;;;;;;9.75;46.97;100452.02;108152;1254;70275;-66
2024/03/06 03:33:40;;;;;;;68.60;34.60;;;;;;;9.87;46.67;100455.88;108042;1255;71168;-67
2024/03/06 03:36:07;;;;;;;85.60;35.40;;;;;;;9.91;46.52;100454.91;108106;1254;60852;-66
2024/03/06 03:38:38;;;;;;;80.40;37.70;;;;;;;9.83;46.68;100458.98;108093;1253;60393;-66
2024/03/06 03:41:16;;;;;;;80.60;39.10;;;;;;;9.70;46.90;100458.11;108025;1257;72536;-67
2024/03/06 03:43:43;;;;;;;86.50;39.50;;;;;;;9.67;47.02;100460.67;108053;1253;70218;-67
2024/03/06 03:46:09;;;;;;;94.00;47.70;;;;;;;9.75;46.82;100460.60;108016;1254;72685;-67
2024/03/06 03:48:36;;;;;;;76.50;37.40;;;;;;;9.70;47.02;100464.27;108062;1254;61354;-68
2024/03/06 03:51:06;;;;;;;78.60;36.30;;;;;;;9.71;47.06;100470.20;108044;1253;60188;-66
2024/03/06 03:53:33;;;;;;;84.30;38.90;;;;;;;9.63;47.05;100474.98;108021;1254;74237;-68
2024/03/06 03:56:00;;;;;;;85.50;39.20;;;;;;;9.80;46.75;100480.98;108058;1257;70372;-67
2024/03/06 03:58:27;;;;;;;75.50;36.30;;;;;;;9.76;46.88;100482.33;107991;1254;72784;-66
2024/03/06 04:00:55;;;;;;;71.90;34.10;;;;;;;9.73;46.77;100484.71;108084;1253;61170;-66
2024/03/06 04:03:22;;;;;;;78.50;37.70;;;;;;;9.71;46.81;100487.89;108005;1253;60577;-66
2024/03/06 04:05:48;;;;;;;75.40;37.10;;;;;;;9.61;46.85;100492.39;108019;1254;73747;-66
2024/03/06 04:08:15;;;;;;;81.70;38.70;;;;;;;9.54;46.76;100494.87;107992;1254;70161;-67
2024/03/06 04:10:46;;;;;;;81.20;37.60;;;;;;;9.54;46.66;100494.67;108025;1257;71874;-66
2024/03/06 04:13:14;;;;;;;74.60;36.50;;;;;;;9.55;46.61;100499.05;108049;1253;60317;-65
2024/03/06 04:15:42;;;;;;;86.40;38.70;;;;;;;9.50;46.67;100503.91;108022;1253;60332;-67
2024/03/06 04:18:09;;;;;;;78.90;37.50;;;;;;;9.55;46.31;100505.69;108034;1254;73913;-67
2024/03/06 04:20:36;;;;;;;88.50;39.40;;;;;;;9.61;46.39;100506.41;108008;1254;70291;-66
2024/03/06 04:23:02;;;;;;;89.50;40.50;;;;;;;9.56;46.31;100513.20;107983;1254;73428;-65
2024/03/06 04:25:29;;;;;;;86.70;38.10;;;;;;;9.34;46.84;100518.16;108007;1254;60989;-67
2024/03/06 04:27:56;;;;;;;85.00;38.80;;;;;;;9.26;47.03;100524.67;108059;1257;60312;-67
2024/03/06 04:30:23;;;;;;;83.90;38.10;;;;;;;9.25;47.09;100526.82;108059;1254;73674;-67
2024/03/06 04:32:49;;;;;;;87.10;40.80;;;;;;;9.25;47.07;100527.84;108084;1253;70155;-66
2024/03/06 04:35:17;;;;;;;84.30;40.00;;;;;;;9.24;47.04;100529.98;108086;1253;73105;-67
2024/03/06 04:37:43;;;;;;;80.80;36.50;;;;;;;9.26;46.89;100533.77;108049;1253;62393;-66
2024/03/06 04:40:10;;;;;;;86.00;38.20;;;;;;;9.44;46.48;100531.23;108068;1254;61562;-66
2024/03/06 04:42:37;;;;;;;98.30;40.90;;;;;;;9.38;46.40;100537.34;108036;1254;73827;-66
2024/03/06 04:45:12;;;;;;;94.00;41.20;;;;;;;9.31;46.42;100538.91;107903;1257;70503;-66
2024/03/06 04:47:38;;;;;;;100.80;43.60;;;;;;;9.34;46.34;100542.34;108048;1254;72673;-66
2024/03/06 04:50:10;;;;;;;111.00;45.10;;;;;;;9.34;46.29;100543.91;108039;1253;61130;-66
2024/03/06 04:52:37;;;;;;;123.70;48.30;;;;;;;9.37;46.11;100541.38;107893;1253;60342;-65
2024/03/06 04:55:06;;;;;;;125.00;48.30;;;;;;;9.33;46.32;100543.42;108031;1253;74522;-66
2024/03/06 04:57:34;;;;;;;109.00;44.60;;;;;;;9.27;46.43;100546.39;108063;1253;70389;-66
2024/03/06 05:00:08;;;;;;;93.30;41.30;;;;;;;9.15;46.52;100549.64;107858;1256;71901;-67
2024/03/06 05:02:36;;;;;;;83.90;38.50;;;;;;;9.04;46.63;100553.59;108058;1254;61076;-65
2024/03/06 05:05:22;;;;;;;89.80;40.40;;;;;;;8.99;46.38;100552.84;108055;1253;60546;-67
2024/03/06 05:08:07;;;;;;;95.90;43.30;;;;;;;8.93;46.61;100555.06;108050;1257;73275;-66
2024/03/06 05:10:52;;;;;;;96.60;42.20;;;;;;;8.92;46.69;100556.86;108017;1254;70636;-66
2024/03/06 05:13:37;;;;;;;105.20;43.10;;;;;;;9.01;46.31;100554.52;107986;1254;72503;-67
2024/03/06 05:16:23;;;;;;;102.80;43.20;;;;;;;9.02;46.34;100560.10;107985;1254;60988;-67
2024/03/06 05:19:10;;;;;;;110.00;45.50;;;;;;;8.89;46.68;100562.52;108017;1253;60315;-67
2024/03/06 05:21:55;;;;;;;105.70;45.70;;;;;;;8.88;46.74;100566.58;107995;1253;72889;-65
2024/03/06 05:24:40;;;;;;;105.50;45.60;;;;;;;8.96;46.71;100567.79;108058;1253;68969;-65
2024/03/06 05:27:26;;;;;;;90.80;40.40;;;;;;;8.90;46.70;100567.92;108016;1253;73211;-65
2024/03/06 05:30:14;;;;;;;93.80;41.60;;;;;;;8.92;46.37;100568.77;108021;1253;61408;-66
2024/03/06 05:32:59;;;;;;;96.10;43.80;;;;;;;8.92;46.32;100570.52;108074;1254;60159;-65
2024/03/06 05:35:44;;;;;;;94.60;42.70;;;;;;;8.93;46.28;100575.39;108055;1255;74536;-64
2024/03/06 05:38:29;;;;;;;90.50;40.60;;;;;;;9.12;45.99;100578.98;108030;1253;70574;-66
2024/03/06 05:41:15;;;;;;;91.40;39.80;;;;;;;9.09;45.98;100580.62;108017;1255;73545;-66
2024/03/06 05:44:00;;;;;;;100.40;43.90;;;;;;;9.03;46.14;100580.95;108018;1253;60393;-67
2024/03/06 05:46:46;;;;;;;104.50;44.40;;;;;;;8.88;46.30;100586.53;108026;1253;60367;-65
2024/03/06 05:49:32;;;;;;;89.80;40.50;;;;;;;8.91;46.24;100590.69;107922;1255;74241;-66
2024/03/06 05:52:17;;;;;;;96.80;44.00;;;;;;;8.94;46.28;100592.70;107863;1253;70204;-66
2024/03/06 05:55:06;;;;;;;105.80;43.60;;;;;;;8.91;46.29;100589.81;108012;1254;72584;-67
2024/03/06 05:57:50;;;;;;;99.30;43.80;;;;;;;8.81;46.45;100591.77;108074;1253;61192;-67
2024/03/06 06:00:39;;;;;;;96.00;41.30;;;;;;;8.88;46.35;100593.73;108046;1253;60383;-69
2024/03/06 06:03:08;;;;;;;100.00;43.80;;;;;;;8.98;46.32;100595.77;108035;1253;73776;-66
2024/03/06 06:05:36;;;;;;;90.90;42.00;;;;;;;9.10;46.01;100597.08;108039;1253;70354;-67
2024/03/06 06:08:04;;;;;;;96.50;41.70;;;;;;;9.03;45.83;100597.23;107998;1253;73146;-67
2024/03/06 06:10:31;;;;;;;91.20;42.10;;;;;;;9.11;45.55;100594.92;108023;1253;59938;-67
2024/03/06 06:12:58;;;;;;;101.60;41.10;;;;;;;9.16;45.53;100598.86;108093;1253;60408;-66
2024/03/06 06:15:24;;;;;;;99.10;41.70;;;;;;;9.16;45.52;100599.38;108004;1253;73757;-67
2024/03/06 06:17:51;;;;;;;94.40;40.80;;;;;;;9.21;45.42;100605.92;107950;1253;60307;-67
2024/03/06 06:20:18;;;;;;;93.20;38.70;;;;;;;9.15;45.43;100604.83;108078;1254;72894;-67
2024/03/06 06:22:46;;;;;;;86.90;41.20;;;;;;;9.16;45.43;100608.14;108085;1253;60986;-66
2024/03/06 06:25:12;;;;;;;96.00;40.20;;;;;;;9.15;45.17;100612.02;108007;1257;60299;-66
2024/03/06 06:27:39;;;;;;;91.60;41.70;;;;;;;9.16;45.06;100610.42;108039;1253;73886;-67
2024/03/06 06:30:11;;;;;;;89.00;38.00;;;;;;;9.25;44.89;100611.79;108029;1253;70417;-67
2024/03/06 06:32:40;;;;;;;97.90;40.80;;;;;;;9.31;44.88;100614.42;108059;1254;72790;-67
2024/03/06 06:35:07;;;;;;;93.90;41.20;;;;;;;9.37;44.67;100620.09;108112;1253;60479;-66
2024/03/06 06:37:34;;;;;;;95.10;43.40;;;;;;;9.41;44.49;100618.92;108118;1253;60315;-67
2024/03/06 06:40:06;;;;;;;90.70;39.20;;;;;;;9.38;44.74;100623.21;108051;1253;72484;-66
2024/03/06 06:42:34;;;;;;;93.70;41.10;;;;;;;9.48;44.55;100626.65;108084;1253;69056;-68
2024/03/06 06:45:00;;;;;;;85.60;39.10;;;;;;;9.35;44.23;100627.11;108113;1253;70572;-67
2024/03/06 06:47:27;;;;;;;94.30;41.60;;;;;;;9.33;43.98;100629.64;108028;1254;62448;-67
2024/03/06 06:49:54;;;;;;;90.90;39.70;;;;;;;9.27;43.99;100633.80;108078;1257;60371;-67
2024/03/06 06:52:21;;;;;;;93.50;42.00;;;;;;;9.18;44.27;100637.17;108032;1254;75121;-67
2024/03/06 06:54:50;;;;;;;92.80;39.10;;;;;;;9.17;44.14;100639.98;107968;1253;70403;-67
2024/03/06 06:57:16;;;;;;;94.10;40.20;;;;;;;9.17;44.26;100639.81;108071;1253;72341;-67
2024/03/06 06:59:43;;;;;;;99.90;41.90;;;;;;;9.27;44.42;100643.27;108057;1257;61605;-66
2024/03/06 07:02:10;;;;;;;89.60;38.50;;;;;;;9.40;43.88;100644.54;108066;1254;60450;-67
2024/03/06 07:04:37;;;;;;;95.00;39.30;;;;;;;9.29;43.87;100642.52;108078;1253;73259;-67
2024/03/06 07:07:04;;;;;;;88.10;40.40;;;;;;;9.30;43.86;100647.21;108045;1253;70312;-66
2024/03/06 07:09:31;;;;;;;80.50;37.20;;;;;;;9.33;43.66;100649.79;107984;1254;71658;-67
2024/03/06 07:11:57;;;;;;;82.00;36.50;;;;;;;9.41;43.55;100646.61;108109;1253;62654;-67
2024/03/06 07:14:25;;;;;;;89.50;36.30;;;;;;;9.47;43.07;100650.52;107999;1254;60469;-67
2024/03/06 07:16:51;;;;;;;82.00;36.30;;;;;;;9.34;43.20;100647.64;108029;1255;74201;-66
2024/03/06 07:19:18;;;;;;;77.40;35.00;;;;;;;9.54;43.05;100651.39;108050;1257;69285;-66
2024/03/06 07:21:45;;;;;;;79.70;34.50;;;;;;;9.61;43.01;100651.03;108134;1253;71511;-67
2024/03/06 07:24:12;;;;;;;77.50;33.00;;;;;;;9.62;42.70;100652.77;108113;1253;61312;-67
2024/03/06 07:26:39;;;;;;;69.50;33.00;;;;;;;9.80;42.39;100657.41;108080;1253;60433;-66
2024/03/06 07:29:12;;;;;;;73.70;33.50;;;;;;;9.87;42.21;100663.88;108053;1253;72804;-67
2024/03/06 07:31:43;;;;;;;70.70;31.70;;;;;;;9.86;41.90;100666.38;108046;1253;68254;-67
2024/03/06 07:34:10;;;;;;;76.60;33.00;;;;;;;9.72;41.85;100668.48;108006;1253;74073;-66
2024/03/06 07:36:36;;;;;;;74.50;32.50;;;;;;;9.46;42.29;100671.58;108071;1253;61354;-67
2024/03/06 07:39:04;;;;;;;69.40;32.10;;;;;;;9.51;42.42;100671.44;108085;1253;59434;-67
2024/03/06 07:41:32;;;;;;;61.50;29.20;;;;;;;9.70;42.43;100671.34;108086;1253;72653;-67
2024/03/06 07:44:00;;;;;;;68.80;33.90;;;;;;;9.83;42.24;100674.33;108057;1253;70464;-67
2024/03/06 07:46:26;;;;;;;64.90;30.60;;;;;;;10.05;41.66;100664.29;108040;1253;72490;-67
2024/03/06 07:48:53;;;;;;;66.10;30.10;;;;;;;9.91;41.51;100670.45;108079;1254;61520;-68
2024/03/06 07:51:20;;;;;;;65.30;31.20;;;;;;;9.93;41.60;100670.40;108168;1255;60447;-67
2024/03/06 07:53:49;;;;;;;62.40;30.80;;;;;;;9.89;41.69;100672.42;108109;1253;73709;-67
2024/03/06 07:56:15;;;;;;;66.90;30.20;;;;;;;10.06;41.51;100668.48;108071;1253;70146;-66
2024/03/06 07:58:42;;;;;;;68.30;32.40;;;;;;;10.28;41.27;100672.81;108098;1254;72507;-67
2024/03/06 08:01:11;;;;;;;70.90;32.10;;;;;;;10.21;40.86;100670.54;108074;1253;61224;-67
2024/03/06 08:03:39;;;;;;;66.00;33.30;;;;;;;10.27;40.66;100674.43;108075;1253;60761;-67
2024/03/06 08:06:06;;;;;;;57.30;28.60;;;;;;;10.13;40.84;100677.59;108027;1253;73776;-66
2024/03/06 08:08:33;;;;;;;62.20;29.90;;;;;;;10.14;40.93;100675.29;108042;1255;71391;-66
2024/03/06 08:10:59;;;;;;;69.00;31.30;;;;;;;10.17;40.86;100683.47;108000;1254;73891;-65
2024/03/06 08:13:27;;;;;;;66.40;30.20;;;;;;;10.21;40.78;100682.83;108088;1253;60961;-66
2024/03/06 08:15:54;;;;;;;64.70;30.80;;;;;;;10.42;40.56;100686.68;108104;1253;60369;-68
2024/03/06 08:18:20;;;;;;;67.60;30.20;;;;;;;10.48;40.37;100688.10;108065;1253;72638;-68
2024/03/06 08:20:47;;;;;;;64.20;31.30;;;;;;;10.39;40.55;100680.10;108063;1253;71054;-67
2024/03/06 08:23:14;;;;;;;69.20;32.20;;;;;;;10.40;40.48;100687.45;107990;1253;73966;-66
2024/03/06 08:25:41;;;;;;;66.80;29.90;;;;;;;10.34;40.48;100689.71;108013;1253;60896;-67
2024/03/06 08:28:09;;;;;;;62.00;30.40;;;;;;;10.33;40.54;100693.59;108011;1253;60348;-68
2024/03/06 08:30:36;;;;;;;59.20;28.90;;;;;;;10.22;40.70;100691.41;108040;1253;72899;-67
2024/03/06 08:33:03;;;;;;;63.90;30.30;;;;;;;10.20;40.65;100690.39;108111;1253;69165;-67
2024/03/06 08:35:30;;;;;;;64.50;31.40;;;;;;;10.33;40.61;100690.09;108039;1253;71499;-68
2024/03/06 08:37:57;;;;;;;63.20;29.70;;;;;;;10.39;40.44;100692.04;107794;1256;61082;-68
2024/03/06 08:40:25;;;;;;;58.50;28.90;;;;;;;10.40;40.58;100690.59;107912;1253;60232;-67
2024/03/06 08:42:52;;;;;;;67.90;31.20;;;;;;;10.49;40.68;100690.17;108042;1253;73771;-67
2024/03/06 08:45:19;;;;;;;68.10;32.60;;;;;;;10.45;40.63;100695.92;107999;1253;69258;-67
2024/03/06 08:47:46;;;;;;;78.50;34.20;;;;;;;10.43;40.62;100697.20;108018;1253;71454;-67
2024/03/06 08:50:13;;;;;;;73.10;33.20;;;;;;;10.19;40.91;100696.73;107961;1253;60852;-67
2024/03/06 08:52:43;;;;;;;74.40;34.90;;;;;;;10.25;40.90;100697.13;108036;1255;60421;-67
2024/03/06 08:55:10;;;;;;;76.30;34.90;;;;;;;10.38;40.89;100699.95;108010;1256;74201;-67
2024/03/06 08:57:36;;;;;;;70.50;33.40;;;;;;;10.63;40.83;100704.52;108020;1253;71648;-66
2024/03/06 09:00:10;;;;;;;62.50;30.50;;;;;;;10.66;40.77;100704.80;107968;1255;71112;-66
2024/03/06 09:02:40;;;;;;;63.80;29.00;;;;;;;10.67;40.28;100711.77;108027;1253;61195;-67
2024/03/06 09:05:12;;;;;;;60.40;28.50;;;;;;;10.67;39.88;100713.55;108048;1253;60364;-67
2024/03/06 09:07:42;;;;;;;63.40;31.30;;;;;;;10.69;39.83;100714.03;108075;1253;73374;-67
2024/03/06 09:10:12;;;;;;;64.30;31.10;;;;;;;10.60;39.88;100715.67;108037;1253;70399;-67
2024/03/06 09:12:40;;;;;;;66.30;28.80;;;;;;;10.46;39.98;100714.83;107855;1253;188608;-67
2024/03/06 09:16:18;;;;;;;67.20;30.70;;;;;;;9.47;42.33;100721.96;105013;1289;600303;-67
2024/03/06 09:18:45;;;;;;;65.50;31.60;;;;;;;10.64;40.02;100716.27;108185;1251;63141;-67
2024/03/06 09:21:13;;;;;;;63.10;30.70;;;;;;;10.84;39.64;100720.10;108192;1252;59278;-67
2024/03/06 09:23:40;;;;;;;67.20;30.50;;;;;;;10.87;39.42;100724.41;108186;1251;74458;-66
2024/03/06 09:26:08;;;;;;;61.00;28.60;;;;;;;10.96;39.42;100721.52;108141;1254;70396;-67
2024/03/06 09:28:35;;;;;;;72.90;31.30;;;;;;;11.13;39.19;100726.46;108154;1251;71395;-66
2024/03/06 09:31:03;;;;;;;62.10;30.20;;;;;;;11.03;39.08;100728.00;108072;1254;161905;-66
2024/03/06 09:33:31;;;;;;;66.50;32.10;;;;;;;10.84;39.24;100733.09;108250;1251;60028;-66
2024/03/06 09:35:58;;;;;;;74.40;33.80;;;;;;;10.82;39.25;100732.82;108208;1251;73238;-67
2024/03/06 09:38:26;;;;;;;69.90;30.20;;;;;;;10.62;39.48;100731.78;108276;1251;72700;-65
2024/03/06 09:40:56;;;;;;;64.80;29.70;;;;;;;10.68;39.28;100736.20;108213;1253;74895;-67
2024/03/06 09:43:25;;;;;;;67.80;31.30;;;;;;;10.72;39.30;100738.88;108201;1254;60987;-66
2024/03/06 09:45:56;;;;;;;68.40;30.50;;;;;;;10.71;39.39;100737.49;108201;1251;60335;-66
2024/03/06 09:48:23;;;;;;;61.50;29.80;;;;;;;10.95;39.10;100738.57;108135;1258;75479;-66
2024/03/06 09:50:51;;;;;;;68.50;29.90;;;;;;;11.20;38.81;100731.87;108054;1258;69478;-67
2024/03/06 09:53:19;;;;;;;61.00;30.70;;;;;;;11.15;38.64;100733.60;107992;1251;72151;-66
2024/03/06 09:55:47;;;;;;;59.20;29.30;;;;;;;11.15;38.57;100738.52;108125;1253;59778;-67
2024/03/06 09:58:15;;;;;;;68.90;30.00;;;;;;;11.10;38.39;100739.73;108091;1251;59589;-67
2024/03/06 10:00:44;;;;;;;68.50;30.20;;;;;;;11.03;38.22;100742.89;108085;1252;74009;-68
2024/03/06 10:03:11;;;;;;;66.20;31.40;;;;;;;10.95;38.40;100743.31;108211;1251;70715;-67
2024/03/06 10:05:39;;;;;;;64.30;31.20;;;;;;;10.91;38.52;100743.96;108196;1254;72232;-67
2024/03/06 10:08:07;;;;;;;60.40;29.50;;;;;;;10.91;38.31;100749.05;108105;1254;63123;-67
2024/03/06 10:10:35;;;;;;;71.10;33.60;;;;;;;11.04;38.31;100749.20;108241;1251;62302;-67
2024/03/06 10:13:03;;;;;;;77.50;34.20;;;;;;;11.03;38.36;100746.06;108222;1251;72059;-68
2024/03/06 10:15:31;;;;;;;77.20;34.70;;;;;;;11.06;38.28;100749.83;108177;1254;69197;-67
2024/03/06 10:18:15;;;;;;;69.00;33.10;;;;;;;11.08;38.36;100750.48;108178;1254;72439;-67
2024/03/06 10:20:43;;;;;;;79.20;35.50;;;;;;;11.14;38.32;100747.67;108175;1252;59605;-66
2024/03/06 10:23:11;;;;;;;73.50;34.40;;;;;;;11.07;38.63;100752.81;108149;1254;60418;-66
2024/03/06 10:25:39;;;;;;;76.60;34.90;;;;;;;10.96;38.71;100747.34;108065;1254;71993;-66
2024/03/06 10:28:11;;;;;;;84.10;37.90;;;;;;;10.99;38.77;100743.20;108098;1254;69253;-67
2024/03/06 10:30:43;;;;;;;80.60;38.20;;;;;;;10.95;38.79;100745.07;108099;1254;71968;-66
2024/03/06 10:33:12;;;;;;;79.50;37.40;;;;;;;10.77;38.86;100747.36;108111;1254;59719;-67
2024/03/06 10:35:40;;;;;;;89.50;39.30;;;;;;;10.73;38.85;100747.27;108155;1254;59397;-67
2024/03/06 10:38:08;;;;;;;92.60;39.00;;;;;;;10.49;39.11;100745.13;108140;1254;71916;-66
2024/03/06 10:40:37;;;;;;;98.50;41.20;;;;;;;10.56;39.21;100741.09;108069;1253;71794;-66
2024/03/06 10:43:08;;;;;;;93.50;43.40;;;;;;;10.64;38.99;100741.91;108164;1253;71448;-68
2024/03/06 10:45:36;;;;;;;100.70;44.60;;;;;;;10.54;39.05;100743.92;108069;1253;61650;-67
2024/03/06 10:48:04;;;;;;;101.30;44.40;;;;;;;10.57;39.04;100746.85;108059;1253;59487;-69
2024/03/06 10:50:32;;;;;;;93.10;42.60;;;;;;;10.75;39.08;100752.34;108060;1253;72199;-66
2024/03/06 10:53:00;;;;;;;91.40;43.20;;;;;;;10.62;39.03;100750.05;108060;1254;69836;-66
2024/03/06 10:55:27;;;;;;;85.60;40.90;;;;;;;10.70;39.07;100749.13;108076;1254;71637;-66
2024/03/06 10:57:55;;;;;;;93.40;40.40;;;;;;;10.70;39.20;100750.01;108065;1253;60641;-65
2024/03/06 11:00:23;;;;;;;102.10;44.30;;;;;;;10.74;39.09;100756.38;107950;1254;62121;-66
2024/03/06 11:02:51;;;;;;;105.00;45.80;;;;;;;10.41;39.28;100758.66;108121;1254;71906;-67
2024/03/06 11:05:19;;;;;;;110.70;48.20;;;;;;;10.14;39.73;100757.77;108072;1254;69232;-66
2024/03/06 11:07:46;;;;;;;104.60;47.20;;;;;;;10.03;39.96;100762.41;108073;1256;75354;-66
2024/03/06 11:10:29;;;;;;;107.40;48.30;;;;;;;10.07;39.94;100759.70;107969;1254;60804;-66
2024/03/06 11:12:56;;;;;;;108.20;47.00;;;;;;;9.96;40.16;100761.35;108082;1254;61353;-67
2024/03/06 11:15:24;;;;;;;112.50;49.50;;;;;;;9.89;40.34;100765.73;108050;1254;75433;-67